createdAt,value
2023-03-25T00:02:05.077Z,9.10
2023-03-25T00:04:35.257Z,9.07
2023-03-25T00:07:04.908Z,9.05
2023-03-25T00:09:34.259Z,8.96
2023-03-25T00:12:03.305Z,9.04
2023-03-25T00:14:33.074Z,9.01
2023-03-25T00:17:03.475Z,8.95
2023-03-25T00:19:33.708Z,8.96
2023-03-25T00:22:03.047Z,8.98
2023-03-25T00:24:32.133Z,9.00
2023-03-25T00:27:01.177Z,9.07
2023-03-25T00:29:30.324Z,9.15
2023-03-25T00:31:59.381Z,9.10
2023-03-25T00:34:29.779Z,9.22
2023-03-25T00:36:58.996Z,9.19
2023-03-25T00:39:28.245Z,9.19
2023-03-25T00:41:58.931Z,9.14
2023-03-25T00:44:27.916Z,9.17
2023-03-25T00:46:57.058Z,9.15
2023-03-25T00:49:28.527Z,9.14
2023-03-25T00:51:58.942Z,9.15
2023-03-25T00:54:28.013Z,9.09
2023-03-25T00:56:57.125Z,9.25
2023-03-25T00:59:26.297Z,9.28
2023-03-25T01:01:57.688Z,9.24
2023-03-25T01:04:26.839Z,9.30
2023-03-25T01:06:56.116Z,9.17
2023-03-25T01:09:26.555Z,9.13
2023-03-25T01:11:55.590Z,9.16
2023-03-25T01:14:27.322Z,9.28
2023-03-25T01:16:56.483Z,9.20
2023-03-25T01:19:25.825Z,9.31
2023-03-25T01:21:55.938Z,9.39
2023-03-25T01:24:26.535Z,9.31
2023-03-25T01:26:55.716Z,9.38
2023-03-25T01:29:24.735Z,9.49
2023-03-25T01:31:54.677Z,9.45
2023-03-25T01:34:23.860Z,9.43
2023-03-25T01:36:55.113Z,9.50
2023-03-25T01:39:26.271Z,9.50
2023-03-25T01:41:56.104Z,9.51
2023-03-25T01:45:02.757Z,9.52
2023-03-25T01:47:32.831Z,9.51
2023-03-25T01:50:01.888Z,9.57
2023-03-25T01:52:31.710Z,9.63
2023-03-25T01:55:02.307Z,9.60
2023-03-25T01:57:32.309Z,9.62
2023-03-25T02:00:01.473Z,9.58
2023-03-25T02:02:36.684Z,9.63
2023-03-25T02:05:10.933Z,9.66
2023-03-25T02:07:46.739Z,9.59
2023-03-25T02:10:18.520Z,9.69
2023-03-25T02:12:47.682Z,9.70
2023-03-25T02:15:20.522Z,9.72
2023-03-25T02:18:08.548Z,9.64
2023-03-25T02:21:18.187Z,9.57
2023-03-25T02:24:22.030Z,9.63
2023-03-25T02:27:14.897Z,9.58
2023-03-25T02:30:22.070Z,9.63
2023-03-25T02:33:20.303Z,9.58
2023-03-25T02:36:16.644Z,9.58
2023-03-25T02:38:49.629Z,9.51
2023-03-25T02:41:25.734Z,9.47
2023-03-25T02:44:03.461Z,9.48
2023-03-25T02:46:34.920Z,9.38
2023-03-25T02:49:09.526Z,9.36
2023-03-25T02:51:42.602Z,9.28
2023-03-25T02:54:17.065Z,9.34
2023-03-25T02:56:49.877Z,9.31
2023-03-25T02:59:22.081Z,9.36
2023-03-25T03:01:52.145Z,9.26
2023-03-25T03:04:22.269Z,9.27
2023-03-25T03:06:51.699Z,9.28
2023-03-25T03:09:37.130Z,9.26
2023-03-25T03:12:22.052Z,9.27
2023-03-25T03:15:01.562Z,9.28
2023-03-25T03:17:39.863Z,9.24
2023-03-25T03:20:19.541Z,9.31
2023-03-25T03:22:54.481Z,9.34
2023-03-25T03:25:32.550Z,9.34
2023-03-25T03:28:07.800Z,9.31
2023-03-25T03:30:46.340Z,9.23
2023-03-25T03:33:21.919Z,9.31
2023-03-25T03:35:57.252Z,9.31
2023-03-25T03:38:29.414Z,9.27
2023-03-25T03:41:05.711Z,9.22
2023-03-25T03:43:41.762Z,9.19
2023-03-25T03:46:17.092Z,9.19
2023-03-25T03:48:49.122Z,9.17
2023-03-25T03:51:21.400Z,9.18
2023-03-25T03:53:58.261Z,9.12
2023-03-25T03:56:37.240Z,9.29
2023-03-25T03:59:13.151Z,9.27
2023-03-25T04:01:46.096Z,9.25
2023-03-25T04:04:21.140Z,9.21
2023-03-25T04:06:57.286Z,9.24
2023-03-25T04:09:33.843Z,9.19
2023-03-25T04:12:09.875Z,9.05
2023-03-25T04:14:40.065Z,9.16
2023-03-25T04:17:09.272Z,9.15
2023-03-25T04:19:38.348Z,9.08
2023-03-25T04:22:07.941Z,9.06
2023-03-25T04:24:41.568Z,9.08
2023-03-25T04:27:13.666Z,9.05
2023-03-25T04:29:43.971Z,9.07
2023-03-25T04:32:13.426Z,9.10
2023-03-25T04:34:42.675Z,9.14
2023-03-25T04:37:11.735Z,9.08
2023-03-25T04:39:40.785Z,9.21
2023-03-25T04:42:13.720Z,9.21
2023-03-25T04:44:42.759Z,9.25
2023-03-25T04:47:15.482Z,9.24
2023-03-25T04:49:45.180Z,9.24
2023-03-25T04:52:14.553Z,8.99
2023-03-25T04:54:44.630Z,8.67
2023-03-25T04:57:15.237Z,8.46
2023-03-25T04:59:44.350Z,8.37
2023-03-25T05:02:14.404Z,8.34
2023-03-25T05:04:47.861Z,8.21
2023-03-25T05:07:18.913Z,8.13
2023-03-25T05:09:47.992Z,7.92
2023-03-25T05:12:18.354Z,7.89
2023-03-25T05:14:47.423Z,7.85
2023-03-25T05:17:16.514Z,7.81
2023-03-25T05:19:45.596Z,7.83
2023-03-25T05:22:14.615Z,7.85
2023-03-25T05:24:45.127Z,7.80
2023-03-25T05:27:14.160Z,7.87
2023-03-25T05:29:44.565Z,7.80
2023-03-25T05:32:17.717Z,7.80
2023-03-25T05:34:47.549Z,7.84
2023-03-25T05:37:16.752Z,7.98
2023-03-25T05:39:46.037Z,7.97
2023-03-25T05:42:15.203Z,7.92
2023-03-25T05:44:51.100Z,7.99
2023-03-25T05:47:21.974Z,7.96
2023-03-25T05:49:51.969Z,8.03
2023-03-25T05:52:24.349Z,8.05
2023-03-25T05:54:53.431Z,8.04
2023-03-25T05:57:22.500Z,8.10
2023-03-25T05:59:52.959Z,8.11
2023-03-25T06:02:22.117Z,8.14
2023-03-25T06:04:51.418Z,8.16
2023-03-25T06:07:20.800Z,8.12
2023-03-25T06:09:54.070Z,8.27
2023-03-25T06:12:27.342Z,8.20
2023-03-25T06:14:58.148Z,8.25
2023-03-25T06:17:27.563Z,8.33
2023-03-25T06:19:56.576Z,8.40
2023-03-25T06:22:27.304Z,8.46
2023-03-25T06:24:56.546Z,8.56
2023-03-25T06:27:27.016Z,8.58
2023-03-25T06:29:58.244Z,8.58
2023-03-25T06:32:27.340Z,8.57
2023-03-25T06:34:56.464Z,8.61
2023-03-25T06:37:26.140Z,8.62
2023-03-25T06:39:56.594Z,8.63
2023-03-25T06:42:27.812Z,8.62
2023-03-25T06:45:21.155Z,8.65
2023-03-25T06:48:09.569Z,8.74
2023-03-25T06:50:38.886Z,8.85
2023-03-25T06:53:07.964Z,8.93
2023-03-25T06:55:37.239Z,8.89
2023-03-25T06:58:06.548Z,8.98
2023-03-25T07:00:37.133Z,9.07
2023-03-25T07:03:06.310Z,9.10
2023-03-25T07:05:35.585Z,8.99
2023-03-25T07:08:04.859Z,9.03
2023-03-25T07:10:34.932Z,9.30
2023-03-25T07:13:04.040Z,9.14
2023-03-25T07:15:33.170Z,9.45
2023-03-25T07:18:03.615Z,9.82
2023-03-25T07:20:32.784Z,9.58
2023-03-25T07:23:01.816Z,9.62
2023-03-25T07:25:31.187Z,10.07
2023-03-25T07:28:00.324Z,9.72
2023-03-25T07:30:30.295Z,9.43
2023-03-25T07:32:59.420Z,9.56
2023-03-25T07:35:29.812Z,10.23
2023-03-25T07:37:58.996Z,9.44
2023-03-25T07:40:28.032Z,9.71
2023-03-25T07:42:57.062Z,9.47
2023-03-25T07:45:44.397Z,9.34
2023-03-25T07:48:16.134Z,9.36
2023-03-25T07:50:49.285Z,9.24
2023-03-25T07:53:18.453Z,9.20
2023-03-25T07:55:48.417Z,9.07
2023-03-25T07:58:17.826Z,9.13
2023-03-25T08:00:47.415Z,9.22
2023-03-25T08:03:17.267Z,9.37
2023-03-25T08:05:49.334Z,9.25
2023-03-25T08:08:18.686Z,9.45
2023-03-25T08:10:48.150Z,9.57
2023-03-25T08:13:17.383Z,9.51
2023-03-25T08:15:46.491Z,9.29
2023-03-25T08:18:15.699Z,9.29
2023-03-25T08:20:44.795Z,9.48
2023-03-25T08:23:19.619Z,9.48
2023-03-25T08:25:51.701Z,9.25
2023-03-25T08:28:23.194Z,9.02
2023-03-25T08:30:54.664Z,9.06
2023-03-25T08:33:26.937Z,9.14
2023-03-25T08:35:58.834Z,9.04
2023-03-25T08:38:34.407Z,9.13
2023-03-25T08:41:04.462Z,9.03
2023-03-25T08:43:33.504Z,9.12
2023-03-25T08:46:02.630Z,9.26
2023-03-25T08:48:31.668Z,9.45
2023-03-25T08:51:00.894Z,9.38
2023-03-25T08:53:32.473Z,9.42
2023-03-25T08:56:01.680Z,9.43
2023-03-25T08:58:30.748Z,9.46
2023-03-25T09:00:59.772Z,9.54
2023-03-25T09:03:28.974Z,9.49
2023-03-25T09:05:57.981Z,9.71
2023-03-25T09:08:26.999Z,9.50
2023-03-25T09:10:57.979Z,9.65
2023-03-25T09:13:27.617Z,9.44
2023-03-25T09:15:58.321Z,9.33
2023-03-25T09:18:27.497Z,9.20
2023-03-25T09:21:00.826Z,9.01
2023-03-25T09:23:29.990Z,8.81
2023-03-25T09:26:05.020Z,8.77
2023-03-25T09:28:34.094Z,8.76
2023-03-25T09:31:03.179Z,8.46
2023-03-25T09:33:32.274Z,8.45
2023-03-25T09:36:02.267Z,8.70
2023-03-25T09:38:31.659Z,8.60
2023-03-25T09:41:04.496Z,8.67
2023-03-25T09:43:41.166Z,8.84
2023-03-25T09:46:10.763Z,8.60
2023-03-25T09:48:42.931Z,8.60
2023-03-25T09:51:16.838Z,8.58
2023-03-25T09:53:51.678Z,8.46
2023-03-25T09:56:28.628Z,8.65
2023-03-25T09:59:02.638Z,8.79
2023-03-25T10:01:41.466Z,8.74
2023-03-25T10:04:40.472Z,8.58
2023-03-25T10:07:23.137Z,8.75
2023-03-25T10:09:59.334Z,8.95
2023-03-25T10:12:38.758Z,8.80
2023-03-25T10:15:22.631Z,9.00
2023-03-25T10:18:05.873Z,9.28
2023-03-25T10:20:48.493Z,9.28
2023-03-25T10:23:27.398Z,9.57
2023-03-25T10:26:01.947Z,10.01
2023-03-25T10:28:37.074Z,10.08
2023-03-25T10:31:11.599Z,10.40
2023-03-25T10:33:44.790Z,10.71
2023-03-25T10:36:19.175Z,10.37
2023-03-25T10:38:54.247Z,10.39
2023-03-25T10:41:28.072Z,10.39
2023-03-25T10:43:58.445Z,10.59
2023-03-25T10:46:32.284Z,10.80
2023-03-25T10:49:01.781Z,10.83
2023-03-25T10:51:33.248Z,10.18
2023-03-25T10:54:02.711Z,10.59
2023-03-25T10:56:35.415Z,10.60
2023-03-25T10:59:13.978Z,10.08
2023-03-25T11:01:44.561Z,10.21
2023-03-25T11:04:18.002Z,10.56
2023-03-25T11:06:52.426Z,10.02
2023-03-25T11:09:28.179Z,10.06
2023-03-25T11:12:00.598Z,9.95
2023-03-25T11:14:32.181Z,9.98
2023-03-25T11:17:03.971Z,9.89
2023-03-25T11:19:38.827Z,9.67
2023-03-25T11:22:13.825Z,9.32
2023-03-25T11:24:45.477Z,9.15
2023-03-25T11:27:20.425Z,8.81
2023-03-25T11:29:55.852Z,8.63
2023-03-25T11:32:32.203Z,8.27
2023-03-25T11:35:03.655Z,8.11
2023-03-25T11:37:37.762Z,7.79
2023-03-25T11:40:14.800Z,7.88
2023-03-25T11:42:49.648Z,7.77
2023-03-25T11:45:25.415Z,7.85
2023-03-25T11:47:58.770Z,7.93
2023-03-25T11:50:30.016Z,8.39
2023-03-25T11:53:03.534Z,9.31
2023-03-25T11:55:38.414Z,9.28
2023-03-25T11:58:08.756Z,9.65
2023-03-25T12:00:42.140Z,10.01
2023-03-25T12:03:22.768Z,9.23
2023-03-25T12:06:00.720Z,9.77
2023-03-25T12:08:44.014Z,10.05
2023-03-25T12:11:19.759Z,9.77
2023-03-25T12:14:09.193Z,9.98
2023-03-25T12:16:46.111Z,10.65
2023-03-25T12:19:24.779Z,10.55
2023-03-25T12:22:11.251Z,10.94
2023-03-25T12:25:01.050Z,10.98
2023-03-25T12:27:45.000Z,10.76
2023-03-25T12:30:34.018Z,10.31
2023-03-25T12:33:13.641Z,10.55
2023-03-25T12:35:48.812Z,10.01
2023-03-25T12:38:30.669Z,10.14
2023-03-25T12:41:18.541Z,9.99
2023-03-25T12:43:59.689Z,9.87
2023-03-25T12:46:49.830Z,9.69
2023-03-25T12:49:44.500Z,10.10
2023-03-25T12:52:24.306Z,9.67
2023-03-25T12:55:07.777Z,9.73
2023-03-25T12:57:48.624Z,9.70
2023-03-25T13:00:30.310Z,9.70
2023-03-25T13:03:27.151Z,9.48
2023-03-25T13:06:01.253Z,9.42
2023-03-25T13:08:34.736Z,9.44
2023-03-25T13:11:09.780Z,9.54
2023-03-25T13:13:42.707Z,9.45
2023-03-25T13:16:16.103Z,9.41
2023-03-25T13:18:48.915Z,9.36
2023-03-25T13:21:23.890Z,9.23
2023-03-25T13:23:59.301Z,9.03
2023-03-25T13:26:31.868Z,8.94
2023-03-25T13:29:05.411Z,8.99
2023-03-25T13:31:37.842Z,8.89
2023-03-25T13:34:20.254Z,8.76
2023-03-25T13:37:00.717Z,8.58
2023-03-25T13:39:40.352Z,8.31
2023-03-25T13:42:15.605Z,8.45
2023-03-25T13:44:51.330Z,8.24
2023-03-25T13:47:25.886Z,8.28
2023-03-25T13:49:58.440Z,8.84
2023-03-25T13:52:35.254Z,9.29
2023-03-25T13:55:11.505Z,9.44
2023-03-25T13:58:05.754Z,9.32
2023-03-25T14:00:54.766Z,8.89
2023-03-25T14:03:53.514Z,8.76
2023-03-25T14:07:12.219Z,8.92
2023-03-25T14:10:15.532Z,9.24
2023-03-25T14:12:48.730Z,9.07
2023-03-25T14:15:23.620Z,8.89
2023-03-25T14:17:54.272Z,8.83
2023-03-25T14:20:27.931Z,8.92
2023-03-25T14:22:59.590Z,8.77
2023-03-25T14:25:38.944Z,8.80
2023-03-25T14:28:13.496Z,8.82
2023-03-25T14:30:43.029Z,8.85
2023-03-25T14:33:13.094Z,8.86
2023-03-25T14:36:00.141Z,8.60
2023-03-25T14:38:51.367Z,8.45
2023-03-25T14:41:55.784Z,8.47
2023-03-25T14:44:29.229Z,8.44
2023-03-25T14:47:03.265Z,8.50
2023-03-25T14:49:54.316Z,8.76
2023-03-25T14:52:31.157Z,8.80
2023-03-25T14:55:02.805Z,8.90
2023-03-25T14:57:40.709Z,8.89
2023-03-25T15:00:21.503Z,9.01
2023-03-25T15:02:59.684Z,8.92
2023-03-25T15:05:30.591Z,8.82
2023-03-25T15:08:11.225Z,8.84
2023-03-25T15:10:42.987Z,8.89
2023-03-25T15:13:17.643Z,8.65
2023-03-25T15:16:01.233Z,8.85
2023-03-25T15:19:02.183Z,8.82
2023-03-25T15:21:50.522Z,8.86
2023-03-25T15:24:26.708Z,8.72
2023-03-25T15:26:57.708Z,8.84
2023-03-25T15:29:46.996Z,8.75
2023-03-25T15:32:33.868Z,8.91
2023-03-25T15:35:33.734Z,9.03
2023-03-25T15:38:19.769Z,8.91
2023-03-25T15:41:02.505Z,8.85
2023-03-25T15:44:06.395Z,8.94
2023-03-25T15:47:02.972Z,9.14
2023-03-25T15:50:07.642Z,8.92
2023-03-25T15:53:08.216Z,8.77
2023-03-25T15:55:40.996Z,8.86
2023-03-25T15:58:20.141Z,8.90
2023-03-25T16:00:53.612Z,8.67
2023-03-25T16:03:27.054Z,8.70
2023-03-25T16:06:01.628Z,8.72
2023-03-25T16:08:35.789Z,8.64
2023-03-25T16:11:26.737Z,8.57
2023-03-25T16:14:09.375Z,8.41
2023-03-25T16:16:41.033Z,8.49
2023-03-25T16:19:17.447Z,8.42
2023-03-25T16:21:52.678Z,8.53
2023-03-25T16:24:29.762Z,8.56
2023-03-25T16:26:58.923Z,8.44
2023-03-25T16:29:28.237Z,8.48
2023-03-25T16:31:59.805Z,8.47
2023-03-25T16:34:34.308Z,8.38
2023-03-25T16:37:05.952Z,8.16
2023-03-25T16:39:37.707Z,7.85
2023-03-25T16:42:14.385Z,7.62
2023-03-25T16:44:43.404Z,7.57
2023-03-25T16:47:15.854Z,7.60
2023-03-25T16:49:49.006Z,7.52
2023-03-25T16:52:23.954Z,7.44
2023-03-25T16:55:12.742Z,7.47
2023-03-25T16:57:41.932Z,7.49
2023-03-25T17:00:19.353Z,7.27
2023-03-25T17:02:49.838Z,7.19
2023-03-25T17:05:22.023Z,7.13
2023-03-25T17:07:59.323Z,7.15
2023-03-25T17:10:30.957Z,7.06
2023-03-25T17:13:05.367Z,7.05
2023-03-25T17:15:36.008Z,7.03
2023-03-25T17:18:13.382Z,6.92
2023-03-25T17:20:44.940Z,6.97
2023-03-25T17:23:28.356Z,6.97
2023-03-25T17:26:00.226Z,7.02
2023-03-25T17:28:35.064Z,7.01
2023-03-25T17:31:20.105Z,7.03
2023-03-25T17:33:50.664Z,7.04
2023-03-25T17:36:21.299Z,6.97
2023-03-25T17:38:53.960Z,7.09
2023-03-25T17:41:23.298Z,6.99
2023-03-25T17:43:56.040Z,6.96
2023-03-25T17:46:26.744Z,6.98
2023-03-25T17:48:58.049Z,6.99
2023-03-25T17:51:28.694Z,6.95
2023-03-25T17:53:59.245Z,6.97
2023-03-25T17:56:29.645Z,6.97
2023-03-25T17:59:01.712Z,7.01
2023-03-25T18:01:32.497Z,7.06
2023-03-25T18:04:01.590Z,7.04
2023-03-25T18:06:30.723Z,7.03
2023-03-25T18:09:01.335Z,7.11
2023-03-25T18:11:30.404Z,7.09
2023-03-25T18:13:59.505Z,7.18
2023-03-25T18:16:28.621Z,7.18
2023-03-25T18:18:57.691Z,7.14
2023-03-25T18:21:26.868Z,7.19
2023-03-25T18:23:56.890Z,7.31
2023-03-25T18:26:28.370Z,7.26
2023-03-25T18:28:57.418Z,7.31
2023-03-25T18:31:26.522Z,7.31
2023-03-25T18:33:56.486Z,7.37
2023-03-25T18:36:25.712Z,7.40
2023-03-25T18:38:54.952Z,7.35
2023-03-25T18:41:24.360Z,7.38
2023-03-25T18:43:54.759Z,7.38
2023-03-25T18:46:23.817Z,7.38
2023-03-25T18:48:52.975Z,7.37
2023-03-25T18:51:22.401Z,7.38
2023-03-25T18:53:51.599Z,7.37
2023-03-25T18:56:20.844Z,7.52
2023-03-25T18:58:49.932Z,7.51
2023-03-25T19:01:21.649Z,7.36
2023-03-25T19:03:51.480Z,7.51
2023-03-25T19:06:21.019Z,7.53
2023-03-25T19:08:50.138Z,7.50
2023-03-25T19:11:22.218Z,7.54
2023-03-25T19:13:52.448Z,7.52
2023-03-25T19:16:22.996Z,7.47
2023-03-25T19:18:52.008Z,7.58
2023-03-25T19:21:21.410Z,7.71
2023-03-25T19:23:51.998Z,7.56
2023-03-25T19:26:21.045Z,7.61
2023-03-25T19:28:50.129Z,7.57
2023-03-25T19:31:19.268Z,7.49
2023-03-25T19:33:49.711Z,7.59
2023-03-25T19:36:19.766Z,7.52
2023-03-25T19:38:48.809Z,7.54
2023-03-25T19:41:17.901Z,7.53
2023-03-25T19:43:47.042Z,7.48
2023-03-25T19:46:16.791Z,7.56
2023-03-25T19:48:46.486Z,7.56
2023-03-25T19:51:16.989Z,7.54
2023-03-25T19:53:45.991Z,7.62
2023-03-25T19:56:15.030Z,7.57
2023-03-25T19:58:44.029Z,7.55
2023-03-25T20:01:13.107Z,7.51
2023-03-25T20:03:43.081Z,7.49
2023-03-25T20:06:12.172Z,7.58
2023-03-25T20:08:42.574Z,7.60
2023-03-25T20:11:12.407Z,7.56
2023-03-25T20:13:41.436Z,7.59
2023-03-25T20:16:10.902Z,7.64
2023-03-25T20:18:41.261Z,7.57
2023-03-25T20:21:11.738Z,7.52
2023-03-25T20:23:42.205Z,7.47
2023-03-25T20:26:11.308Z,7.50
2023-03-25T20:28:40.586Z,7.51
2023-03-25T20:31:21.217Z,7.48
2023-03-25T20:33:51.343Z,7.54
2023-03-25T20:36:21.526Z,7.50
2023-03-25T20:38:57.766Z,7.52
2023-03-25T20:41:27.743Z,7.60
2023-03-25T20:43:56.913Z,7.58
2023-03-25T20:46:28.531Z,7.67
2023-03-25T20:48:58.215Z,7.62
2023-03-25T20:51:27.657Z,7.60
2023-03-25T20:53:58.105Z,7.59
2023-03-25T20:56:27.386Z,7.54
2023-03-25T20:58:56.448Z,7.56
2023-03-25T21:01:25.851Z,7.59
2023-03-25T21:03:55.092Z,7.57
2023-03-25T21:06:27.973Z,7.47
2023-03-25T21:09:05.104Z,7.49
2023-03-25T21:11:36.232Z,7.48
2023-03-25T21:14:05.590Z,7.56
2023-03-25T21:16:34.744Z,7.56
2023-03-25T21:19:03.775Z,7.54
2023-03-25T21:21:33.466Z,7.58
2023-03-25T21:24:04.655Z,7.51
2023-03-25T21:26:34.626Z,7.44
2023-03-25T21:29:03.662Z,7.63
2023-03-25T21:31:32.962Z,7.55
2023-03-25T21:34:02.671Z,7.47
2023-03-25T21:36:32.276Z,7.64
2023-03-25T21:39:06.772Z,7.67
2023-03-25T21:41:36.468Z,7.63
2023-03-25T21:44:06.110Z,7.72
2023-03-25T21:46:36.881Z,7.62
2023-03-25T21:49:06.237Z,7.54
2023-03-25T21:51:35.988Z,7.59
2023-03-25T21:54:06.525Z,7.64
2023-03-25T21:56:40.108Z,7.59
2023-03-25T21:59:09.475Z,7.64
2023-03-25T22:01:41.720Z,7.60
2023-03-25T22:04:11.059Z,7.66
2023-03-25T22:06:40.138Z,7.63
2023-03-25T22:09:10.605Z,7.53
2023-03-25T22:11:39.879Z,7.59
2023-03-25T22:14:09.629Z,7.61
2023-03-25T22:16:39.221Z,7.57
2023-03-25T22:19:08.383Z,7.58
2023-03-25T22:21:38.029Z,7.62
2023-03-25T22:24:10.065Z,7.67
2023-03-25T22:26:40.766Z,7.56
2023-03-25T22:29:11.408Z,7.51
2023-03-25T22:31:42.664Z,7.57
2023-03-25T22:34:15.218Z,7.66
2023-03-25T22:36:49.910Z,7.63
2023-03-25T22:39:23.029Z,7.55
2023-03-25T22:41:52.143Z,7.54
2023-03-25T22:44:21.528Z,7.56
2023-03-25T22:46:52.379Z,7.64
2023-03-25T22:49:21.695Z,7.59
2023-03-25T22:51:50.984Z,7.68
2023-03-25T22:54:21.397Z,7.68
2023-03-25T22:56:50.674Z,7.62
2023-03-25T22:59:20.641Z,7.53
2023-03-25T23:01:49.760Z,7.55
2023-03-25T23:04:18.794Z,7.61
2023-03-25T23:07:00.545Z,7.65
2023-03-25T23:09:44.112Z,7.65
2023-03-25T23:12:14.734Z,7.70
2023-03-25T23:14:49.529Z,7.61
2023-03-25T23:17:18.765Z,7.62
2023-03-25T23:19:47.956Z,7.67
2023-03-25T23:22:17.759Z,7.66
2023-03-25T23:24:48.106Z,7.55
2023-03-25T23:27:17.145Z,7.62
2023-03-25T23:29:46.347Z,7.60
2023-03-25T23:32:16.412Z,7.70
2023-03-25T23:34:45.429Z,7.59
2023-03-25T23:37:15.161Z,7.65
2023-03-25T23:39:46.202Z,7.64
2023-03-25T23:42:16.622Z,7.70
2023-03-25T23:44:45.684Z,7.62
2023-03-25T23:47:14.684Z,7.72
2023-03-25T23:49:44.184Z,7.69
2023-03-25T23:52:13.567Z,7.65
2023-03-25T23:54:42.949Z,7.67
2023-03-25T23:57:14.205Z,7.77
2023-03-25T23:59:45.647Z,7.72
